Time;durP1;ratioP1;P1;durP2;ratioP2;P2;SDS_P1;SDS_P2;PMS_P1;PMS_P2;Temp;Humidity;BMP_temperature;BMP_pressure;BME280_temperature;BME280_humidity;BME280_pressure;Samples;Min_cycle;Max_cycle;Signal;HPM_P1;HPM_P2
2022/01/21 00:00:52;;;;;;;;;;;;;;;6.26;46.98;100132.44;4394973;32;20326;-74
2022/01/21 00:03:20;;;;;;;;;;;;;;;6.18;47.01;100129.56;4388249;32;20008;-75
2022/01/21 00:05:46;;;;;;;;;;;;;;;6.10;47.32;100135.25;4388509;32;20002;-75
2022/01/21 00:08:13;;;;;;;;;;;;;;;6.32;46.53;100118.91;4388219;32;19975;-75
2022/01/21 00:10:40;;;;;;;;;;;;;;;6.19;47.00;100130.44;4386376;32;20336;-75
2022/01/21 00:13:16;;;;;;;;;;;;;;;6.12;46.43;100133.59;4388342;32;20033;-74
2022/01/21 00:15:43;;;;;;;;;;;;;;;6.20;47.04;100137.34;4389962;32;19993;-74
2022/01/21 00:18:11;;;;;;;;;;;;;;;6.16;46.97;100140.59;4394797;32;20295;-75
2022/01/21 00:31:40;;;;;;;;;;;;;;;5.62;46.52;100135.03;4393702;32;20044;-75
2022/01/21 00:34:10;;;;;;;;;;;;;;;5.54;46.37;100137.25;4391408;32;20181;-74
2022/01/21 00:36:37;;;;;;;;;;;;;;;5.55;46.31;100134.78;4396320;32;20037;-75
2022/01/21 00:39:04;;;;;;;;;;;;;;;5.11;47.18;100125.22;4388465;32;20000;-76
2022/01/21 00:41:35;;;;;;;;;;;;;;;5.51;46.72;100119.16;4374901;32;20045;-76
2022/01/21 00:44:02;;;;;;;;;;;;;;;5.79;45.64;100128.87;4377240;32;20061;-76
2022/01/21 00:46:29;;;;;;;;;;;;;;;5.67;46.40;100128.37;4388315;32;20053;-75
2022/01/21 00:48:56;;;;;;;;;;;;;;;5.85;45.76;100118.84;4394910;32;20280;-77
2022/01/21 00:51:22;;;;;;;;;;;;;;;5.79;45.99;100118.59;4390259;32;20041;-76
2022/01/21 00:53:51;;;;;;;;;;;;;;;6.00;45.34;100109.19;4396231;32;20036;-75
2022/01/21 00:56:18;;;;;;;;;;;;;;;6.04;45.15;100116.19;4384399;32;20007;-74
2022/01/21 00:58:45;;;;;;;;;;;;;;;5.80;45.12;100140.88;4385793;32;20032;-74
2022/01/21 01:01:12;;;;;;;;;;;;;;;5.47;46.17;100141.28;4386291;32;19986;-74
2022/01/21 01:03:39;;;;;;;;;;;;;;;5.62;46.14;100142.72;4391540;32;20096;-74
2022/01/21 01:06:06;;;;;;;;;;;;;;;5.86;45.84;100145.41;4372346;32;20030;-75
2022/01/21 01:08:32;;;;;;;;;;;;;;;5.82;45.73;100149.53;4385668;32;20049;-73
2022/01/21 01:11:17;;;;;;;;;;;;;;;5.79;45.50;100144.28;4388070;32;20043;-74
2022/01/21 01:22:00;;;;;;;;;;;;;;;5.73;45.61;100141.47;4393941;32;20043;-74
2022/01/21 01:29:58;;;;;;;;;;;;;;;5.73;45.47;100160.31;4387506;32;19987;-74
2022/01/21 01:32:27;;;;;;;;;;;;;;;5.72;45.13;100162.81;4393454;32;20033;-74
2022/01/21 01:34:54;;;;;;;;;;;;;;;5.56;45.94;100156.19;4388744;32;20003;-75
2022/01/21 01:37:39;;;;;;;;;;;;;;;5.68;45.96;100158.34;4390169;32;19997;-75
2022/01/21 01:49:26;;;;;;;;;;;;;;;5.44;46.41;100166.81;4367814;32;20082;-75
2022/01/21 01:51:34;;;;;;;;;;;;;;;5.23;46.71;100177.06;4375080;32;20206;-77
2022/01/21 01:54:03;;;;;;;;;;;;;;;5.40;46.80;100180.34;4371833;32;20371;-75
2022/01/21 01:56:32;;;;;;;;;;;;;;;5.15;47.92;100187.81;4378674;32;20002;-75
2022/01/21 01:58:59;;;;;;;;;;;;;;;5.04;48.21;100193.37;4385499;32;19987;-75
2022/01/21 02:01:29;;;;;;;;;;;;;;;5.12;48.37;100189.44;4355374;32;20002;-75
2022/01/21 02:03:57;;;;;;;;;;;;;;;4.87;49.22;100186.59;4355584;32;19995;-75
2022/01/21 02:06:24;;;;;;;;;;;;;;;4.89;49.45;100190.13;4376288;32;20004;-75
2022/01/21 02:08:51;;;;;;;;;;;;;;;5.12;49.24;100194.56;4377839;32;19978;-75
2022/01/21 02:11:18;;;;;;;;;;;;;;;5.23;49.22;100191.56;4385556;32;19971;-76
2022/01/21 02:13:49;;;;;;;;;;;;;;;5.31;48.58;100185.09;4385220;32;20473;-75
2022/01/21 02:21:37;;;;;;;;;;;;;;;5.57;48.31;100184.47;4392928;32;19996;-75
2022/01/21 02:24:05;;;;;;;;;;;;;;;5.60;48.11;100174.34;4385257;32;19982;-75
2022/01/21 02:26:32;;;;;;;;;;;;;;;5.55;48.28;100170.72;4385515;32;20038;-76
2022/01/21 02:29:00;;;;;;;;;;;;;;;5.60;48.15;100164.06;4385436;32;19993;-76
2022/01/21 02:31:28;;;;;;;;;;;;;;;5.63;48.28;100159.88;4389705;32;20437;-75
2022/01/21 02:33:55;;;;;;;;;;;;;;;5.73;47.98;100167.16;4389564;32;20016;-75
2022/01/21 02:36:22;;;;;;;;;;;;;;;5.68;47.93;100166.06;4387522;32;19982;-76
2022/01/21 02:38:49;;;;;;;;;;;;;;;5.70;47.80;100164.44;4392138;32;20030;-76
2022/01/21 02:41:16;;;;;;;;;;;;;;;5.78;47.87;100168.22;4385406;32;20033;-75
2022/01/21 02:43:42;;;;;;;;;;;;;;;5.80;47.02;100156.28;4384880;32;20338;-76
2022/01/21 02:46:10;;;;;;;;;;;;;;;5.76;47.35;100139.00;4371548;32;20008;-75
2022/01/21 02:48:38;;;;;;;;;;;;;;;5.77;47.26;100135.63;4377002;32;20791;-75
2022/01/21 02:51:06;;;;;;;;;;;;;;;5.70;47.38;100149.91;4386055;32;19983;-74
2022/01/21 02:56:12;;;;;;;;;;;;;;;5.44;48.14;100171.94;4372350;32;20053;-75
2022/01/21 02:58:40;;;;;;;;;;;;;;;5.59;47.55;100167.47;4385256;32;20745;-75
2022/01/21 03:01:07;;;;;;;;;;;;;;;5.70;47.28;100154.19;4385181;32;19982;-75
2022/01/21 03:03:34;;;;;;;;;;;;;;;5.45;48.14;100157.41;4388989;32;20033;-73
2022/01/21 03:06:01;;;;;;;;;;;;;;;5.42;48.20;100163.31;4389908;32;20061;-75
2022/01/21 03:08:29;;;;;;;;;;;;;;;5.60;47.85;100174.34;4385820;32;20001;-75
2022/01/21 03:10:56;;;;;;;;;;;;;;;5.31;48.71;100179.97;4392625;32;19986;-75
2022/01/21 03:13:23;;;;;;;;;;;;;;;4.45;50.86;100181.28;4385005;32;20005;-74
2022/01/21 03:15:51;;;;;;;;;;;;;;;3.77;52.65;100191.72;4384466;32;20040;-74
2022/01/21 03:18:18;;;;;;;;;;;;;;;4.18;51.80;100181.78;4392949;32;20044;-76
2022/01/21 03:20:45;;;;;;;;;;;;;;;3.75;53.23;100188.19;4371200;32;20054;-75
2022/01/21 03:23:17;;;;;;;;;;;;;;;3.94;52.58;100183.16;4384789;32;19986;-75
2022/01/21 03:25:46;;;;;;;;;;;;;;;3.99;52.42;100194.53;4387354;32;20046;-75
2022/01/21 03:28:13;;;;;;;;;;;;;;;4.29;51.81;100194.22;4377914;32;20049;-74
2022/01/21 03:30:41;;;;;;;;;;;;;;;4.23;51.78;100201.59;4386820;32;20338;-75
2022/01/21 03:33:08;;;;;;;;;;;;;;;4.07;52.19;100202.56;4391987;32;20009;-75
2022/01/21 03:35:36;;;;;;;;;;;;;;;3.78;53.10;100216.53;4384938;32;20912;-74
2022/01/21 03:38:03;;;;;;;;;;;;;;;3.73;53.30;100212.06;4388895;32;19983;-75
2022/01/21 03:40:30;;;;;;;;;;;;;;;3.66;52.91;100207.41;4375928;32;20314;-75
2022/01/21 03:42:57;;;;;;;;;;;;;;;3.24;53.86;100214.69;4395169;32;19990;-74
2022/01/21 03:45:24;;;;;;;;;;;;;;;3.95;52.22;100207.97;4392807;32;20126;-74
2022/01/21 03:47:52;;;;;;;;;;;;;;;2.71;55.51;100207.69;4387201;32;19994;-74
2022/01/21 03:50:32;;;;;;;;;;;;;;;3.52;52.93;100208.44;4390989;32;19991;-73
2022/01/21 03:53:00;;;;;;;;;;;;;;;3.76;52.23;100200.19;4384962;32;20001;-75
2022/01/21 03:55:27;;;;;;;;;;;;;;;3.91;51.60;100200.94;4392618;32;20017;-74
2022/01/21 03:57:54;;;;;;;;;;;;;;;4.29;50.73;100210.44;4371088;32;19990;-75
2022/01/21 04:00:24;;;;;;;;;;;;;;;3.94;50.92;100206.22;4390819;32;20437;-75
2022/01/21 04:02:51;;;;;;;;;;;;;;;3.98;50.33;100205.53;4386503;32;20005;-75
2022/01/21 04:05:18;;;;;;;;;;;;;;;3.94;50.07;100194.28;4392484;32;20000;-75
2022/01/21 04:07:45;;;;;;;;;;;;;;;4.09;49.75;100201.84;4384894;32;20025;-76
2022/01/21 04:10:12;;;;;;;;;;;;;;;3.79;49.88;100200.34;4384407;32;20395;-75
2022/01/21 04:12:40;;;;;;;;;;;;;;;4.09;49.07;100201.84;4392617;32;19990;-74
2022/01/21 04:15:07;;;;;;;;;;;;;;;4.07;48.84;100197.44;4386017;32;20049;-76
2022/01/21 04:17:34;;;;;;;;;;;;;;;3.55;49.34;100194.91;4391132;32;20390;-76
2022/01/21 04:20:01;;;;;;;;;;;;;;;3.71;48.74;100195.72;4390737;32;19986;-76
2022/01/21 04:22:31;;;;;;;;;;;;;;;3.74;48.43;100195.00;4382964;32;20088;-76
2022/01/21 04:25:00;;;;;;;;;;;;;;;3.69;48.13;100210.13;4370937;32;20046;-77
2022/01/21 04:27:27;;;;;;;;;;;;;;;3.71;48.42;100207.66;4390494;32;20097;-75
2022/01/21 04:29:54;;;;;;;;;;;;;;;3.88;47.98;100216.16;4397044;32;19994;-75
2022/01/21 04:32:22;;;;;;;;;;;;;;;3.82;48.11;100218.41;4386185;32;20352;-75
2022/01/21 04:34:49;;;;;;;;;;;;;;;3.83;47.57;100212.47;4387051;32;20358;-75
2022/01/21 04:37:17;;;;;;;;;;;;;;;3.85;47.62;100222.00;4374292;32;19978;-76
2022/01/21 04:39:51;;;;;;;;;;;;;;;3.93;47.41;100224.97;4392557;32;20706;-75
2022/01/21 04:47:38;;;;;;;;;;;;;;;3.49;47.87;100242.41;4374580;32;20069;-75
2022/01/21 04:50:10;;;;;;;;;;;;;;;3.72;47.31;100243.56;4389691;32;19993;-75
2022/01/21 04:52:38;;;;;;;;;;;;;;;3.89;46.89;100248.62;4390095;32;19995;-76
2022/01/21 04:55:06;;;;;;;;;;;;;;;3.28;47.95;100250.66;4386019;32;20009;-74
2022/01/21 04:57:33;;;;;;;;;;;;;;;3.21;48.20;100250.34;4394686;32;20013;-75
2022/01/21 05:00:00;;;;;;;;;;;;;;;3.11;48.77;100255.78;4386158;32;20364;-75
2022/01/21 05:02:29;;;;;;;;;;;;;;;3.45;48.39;100255.00;4393576;32;20319;-75
2022/01/21 05:04:57;;;;;;;;;;;;;;;3.35;48.50;100268.09;4387394;32;20044;-75
2022/01/21 05:07:26;;;;;;;;;;;;;;;3.34;47.86;100253.53;4385959;32;19986;-75
2022/01/21 05:09:53;;;;;;;;;;;;;;;2.88;49.55;100263.94;4083574;32;10001148;-75
2022/01/21 05:12:22;;;;;;;;;;;;;;;3.35;48.34;100252.75;4392721;32;19988;-75
2022/01/21 05:17:19;;;;;;;;;;;;;;;2.71;49.31;100260.44;4387674;32;19987;-75
2022/01/21 05:19:46;;;;;;;;;;;;;;;2.67;49.57;100264.53;4395227;32;19978;-75
2022/01/21 05:22:13;;;;;;;;;;;;;;;2.53;50.24;100268.03;4386034;32;20085;-72
2022/01/21 05:24:41;;;;;;;;;;;;;;;3.00;48.30;100279.94;4396471;32;19986;-69
2022/01/21 05:27:11;;;;;;;;;;;;;;;2.87;48.46;100283.53;4389624;32;19994;-69
2022/01/21 05:29:38;;;;;;;;;;;;;;;3.14;47.86;100304.56;4381869;32;20047;-69
2022/01/21 05:32:05;;;;;;;;;;;;;;;3.06;47.92;100298.13;4381396;32;20031;-69
2022/01/21 05:34:33;;;;;;;;;;;;;;;3.03;47.47;100300.53;4384870;32;19995;-69
2022/01/21 05:37:06;;;;;;;;;;;;;;;2.61;48.69;100292.31;4382900;32;19998;-69
2022/01/21 05:39:33;;;;;;;;;;;;;;;2.55;49.38;100300.53;4377756;32;19999;-69
2022/01/21 05:42:01;;;;;;;;;;;;;;;2.85;48.69;100300.44;4370096;32;19991;-69
2022/01/21 05:46:59;;;;;;;;;;;;;;;2.97;48.53;100290.88;4371041;32;20808;-69
2022/01/21 05:49:28;;;;;;;;;;;;;;;2.84;48.61;100298.69;4377508;32;19991;-69
2022/01/21 05:52:35;;;;;;;;;;;;;;;2.82;48.61;100304.50;4378927;32;19983;-69
2022/01/21 05:54:51;;;;;;;;;;;;;;;2.67;49.14;100300.31;4373897;32;19986;-68
2022/01/21 05:57:19;;;;;;;;;;;;;;;2.83;48.60;100312.25;4375129;32;19986;-69
2022/01/21 05:59:49;;;;;;;;;;;;;;;3.08;48.38;100319.56;4370632;32;20556;-69
2022/01/21 06:02:16;;;;;;;;;;;;;;;2.50;49.10;100327.50;4374194;32;20457;-70
2022/01/21 06:04:46;;;;;;;;;;;;;;;3.19;47.78;100322.69;4374531;32;19983;-71
2022/01/21 06:07:13;;;;;;;;;;;;;;;2.98;48.23;100327.56;4368946;32;20029;-70
2022/01/21 06:09:43;;;;;;;;;;;;;;;3.39;47.13;100341.66;4370462;32;19999;-70
2022/01/21 06:12:10;;;;;;;;;;;;;;;3.30;47.28;100346.31;4379115;32;19990;-70
2022/01/21 06:14:37;;;;;;;;;;;;;;;3.32;47.36;100349.81;4370118;32;20004;-70
2022/01/21 06:17:04;;;;;;;;;;;;;;;3.33;47.11;100362.69;4370864;32;20004;-70
2022/01/21 06:19:31;;;;;;;;;;;;;;;3.39;46.89;100374.94;4378731;32;19978;-71
2022/01/21 06:21:58;;;;;;;;;;;;;;;3.59;46.57;100381.09;4371816;32;20847;-72
2022/01/21 06:24:24;;;;;;;;;;;;;;;3.57;46.53;100393.81;4370426;32;19991;-70
2022/01/21 06:26:53;;;;;;;;;;;;;;;3.64;46.48;100395.91;4366946;32;20044;-70
2022/01/21 06:29:20;;;;;;;;;;;;;;;3.73;46.15;100400.59;4369180;32;20379;-70
2022/01/21 06:31:46;;;;;;;;;;;;;;;3.87;45.50;100402.22;4376103;32;19987;-71
2022/01/21 06:34:13;;;;;;;;;;;;;;;3.77;46.07;100417.03;4373110;32;20058;-70
2022/01/21 06:36:40;;;;;;;;;;;;;;;3.52;46.74;100410.63;4378254;32;19991;-71
2022/01/21 06:39:07;;;;;;;;;;;;;;;3.52;46.39;100420.84;4370269;32;20000;-71
2022/01/21 06:41:36;;;;;;;;;;;;;;;3.78;46.15;100423.91;4381344;32;20038;-71
2022/01/21 06:44:04;;;;;;;;;;;;;;;3.78;46.07;100424.78;4375776;32;20073;-70
2022/01/21 06:46:31;;;;;;;;;;;;;;;4.00;45.70;100429.34;4381600;32;19994;-69
2022/01/21 06:48:58;;;;;;;;;;;;;;;3.60;45.92;100432.34;4383117;32;19998;-69
2022/01/21 06:51:25;;;;;;;;;;;;;;;3.58;46.37;100436.53;4382619;32;19989;-69
2022/01/21 06:53:52;;;;;;;;;;;;;;;3.63;46.16;100434.22;4377391;32;20062;-69
2022/01/21 06:56:19;;;;;;;;;;;;;;;3.72;46.04;100438.13;4369530;32;20045;-68
2022/01/21 06:58:45;;;;;;;;;;;;;;;3.68;45.94;100443.91;4370071;32;20068;-69
2022/01/21 07:01:12;;;;;;;;;;;;;;;4.09;45.26;100455.44;4374955;32;20003;-69
2022/01/21 07:03:40;;;;;;;;;;;;;;;4.05;45.23;100456.09;4384829;32;19986;-69
2022/01/21 07:06:06;;;;;;;;;;;;;;;4.25;44.39;100453.66;4384947;32;20005;-69
2022/01/21 07:08:34;;;;;;;;;;;;;;;4.28;44.42;100453.84;4379732;32;20025;-69
2022/01/21 07:11:01;;;;;;;;;;;;;;;4.51;43.41;100463.56;4379993;32;19990;-69
2022/01/21 07:13:28;;;;;;;;;;;;;;;4.50;43.58;100477.19;4380946;32;20003;-69
2022/01/21 07:15:55;;;;;;;;;;;;;;;4.97;42.35;100483.75;4382801;32;20041;-69
2022/01/21 07:18:22;;;;;;;;;;;;;;;4.79;42.06;100477.75;4378941;32;20831;-69
2022/01/21 07:20:49;;;;;;;;;;;;;;;5.06;42.33;100481.66;4371362;32;19978;-70
2022/01/21 07:23:15;;;;;;;;;;;;;;;4.97;42.40;100486.31;4376268;32;19983;-70
2022/01/21 07:25:42;;;;;;;;;;;;;;;5.19;41.23;100489.94;4369888;32;19986;-70
2022/01/21 07:28:09;;;;;;;;;;;;;;;5.08;41.49;100498.00;4369527;32;19983;-70
2022/01/21 07:30:36;;;;;;;;;;;;;;;5.10;41.52;100493.81;4371234;32;20936;-70
2022/01/21 07:33:03;;;;;;;;;;;;;;;5.15;41.64;100495.75;4380400;32;20045;-71
2022/01/21 07:35:30;;;;;;;;;;;;;;;4.99;41.48;100497.56;4369760;32;20010;-75
2022/01/21 07:38:10;;;;;;;;;;;;;;;4.77;41.84;100492.19;4369511;32;19987;-70
2022/01/21 07:40:36;;;;;;;;;;;;;;;4.82;42.20;100490.72;4371296;32;19983;-70
2022/01/21 07:43:03;;;;;;;;;;;;;;;5.33;41.19;100481.22;4377129;32;19991;-70
2022/01/21 07:45:30;;;;;;;;;;;;;;;4.81;42.65;100478.69;4378577;32;19987;-71
2022/01/21 07:47:57;;;;;;;;;;;;;;;4.82;41.40;100476.22;4369458;32;20049;-70
2022/01/21 07:50:29;;;;;;;;;;;;;;;4.75;42.11;100457.87;4374997;32;19975;-70
2022/01/21 07:52:56;;;;;;;;;;;;;;;4.72;41.94;100473.97;4379314;32;20208;-71
2022/01/21 07:55:23;;;;;;;;;;;;;;;4.64;42.29;100471.03;4393453;32;20050;-71
2022/01/21 07:57:51;;;;;;;;;;;;;;;3.86;43.76;100471.25;4370205;32;19987;-71
2022/01/21 08:00:18;;;;;;;;;;;;;;;4.14;41.96;100477.03;4374066;32;20351;-72
2022/01/21 08:02:45;;;;;;;;;;;;;;;3.51;43.99;100472.84;4379265;32;20478;-70
2022/01/21 08:05:12;;;;;;;;;;;;;;;3.81;42.73;100480.41;4375826;32;19991;-70
2022/01/21 08:07:39;;;;;;;;;;;;;;;3.91;42.25;100477.53;4370298;32;20395;-74
2022/01/21 08:10:06;;;;;;;;;;;;;;;3.95;42.20;100479.44;4381917;32;19978;-70
2022/01/21 08:12:33;;;;;;;;;;;;;;;4.26;42.44;100481.03;4371144;32;19983;-70
2022/01/21 08:15:00;;;;;;;;;;;;;;;4.63;41.35;100488.94;4370320;32;19978;-70
2022/01/21 08:17:29;;;;;;;;;;;;;;;4.68;41.08;100491.72;4372448;32;19991;-73
2022/01/21 08:19:57;;;;;;;;;;;;;;;4.95;40.25;100490.53;4377466;32;19998;-71
2022/01/21 08:22:24;;;;;;;;;;;;;;;5.20;39.84;100463.47;4370596;32;20006;-72
2022/01/21 08:24:51;;;;;;;;;;;;;;;5.30;39.64;100455.41;4381233;32;20054;-70
2022/01/21 08:27:18;;;;;;;;;;;;;;;5.65;38.30;100453.56;4385605;32;19994;-71
2022/01/21 08:29:46;;;;;;;;;;;;;;;5.33;38.95;100446.16;4379808;32;20033;-72
2022/01/21 08:32:13;;;;;;;;;;;;;;;5.65;38.37;100458.69;4378951;32;20010;-71
2022/01/21 08:34:40;;;;;;;;;;;;;;;4.76;39.78;100459.66;4371092;32;19983;-71
2022/01/21 08:37:06;;;;;;;;;;;;;;;4.93;39.39;100451.09;4373270;32;19978;-72
2022/01/21 08:39:33;;;;;;;;;;;;;;;5.57;38.64;100455.78;4378631;32;20009;-70
2022/01/21 08:42:00;;;;;;;;;;;;;;;5.32;39.39;100471.75;4370361;32;20001;-71
2022/01/21 08:44:27;;;;;;;;;;;;;;;5.30;38.86;100457.97;4378676;32;20050;-71
2022/01/21 08:46:54;;;;;;;;;;;;;;;5.91;37.49;100478.75;4371528;32;19979;-71
2022/01/21 08:49:38;;;;;;;;;;;;;;;5.27;39.39;100470.66;4375405;32;19983;-71
2022/01/21 08:52:05;;;;;;;;;;;;;;;5.16;38.39;100493.22;4374229;32;19990;-70
2022/01/21 08:54:31;;;;;;;;;;;;;;;5.29;38.78;100499.84;4371118;32;20248;-71
2022/01/21 08:56:58;;;;;;;;;;;;;;;5.46;39.12;100501.53;4377691;32;20000;-71
2022/01/21 08:59:26;;;;;;;;;;;;;;;5.73;37.70;100498.47;4373676;32;20001;-72
2022/01/21 09:01:54;;;;;;;;;;;;;;;5.28;38.07;100518.63;4373605;32;20017;-72
2022/01/21 09:04:22;;;;;;;;;;;;;;;5.16;38.59;100518.91;4385754;32;20053;-71
2022/01/21 09:06:49;;;;;;;;;;;;;;;5.78;37.68;100509.84;4374346;32;19996;-71
2022/01/21 09:09:15;;;;;;;;;;;;;;;5.58;37.49;100520.09;4392397;32;20010;-71
2022/01/21 09:11:43;;;;;;;;;;;;;;;5.22;38.09;100523.47;4375073;32;20395;-72
2022/01/21 09:14:10;;;;;;;;;;;;;;;5.72;37.57;100530.12;4377244;32;20405;-72
2022/01/21 09:16:37;;;;;;;;;;;;;;;5.12;39.07;100517.88;4369976;32;19987;-72
2022/01/21 09:19:04;;;;;;;;;;;;;;;5.40;38.14;100520.91;4370561;32;19986;-71
2022/01/21 09:21:34;;;;;;;;;;;;;;;5.32;38.50;100525.66;4356803;32;19999;-72
2022/01/21 09:24:01;;;;;;;;;;;;;;;5.83;37.77;100526.34;4370758;32;20325;-71
2022/01/21 09:26:28;;;;;;;;;;;;;;;5.78;37.75;100532.97;4370395;32;19999;-73
2022/01/21 09:28:56;;;;;;;;;;;;;;;5.67;37.63;100549.56;4364033;32;20037;-71
2022/01/21 09:31:23;;;;;;;;;;;;;;;5.78;36.73;100556.09;4373200;32;20376;-71
2022/01/21 09:34:11;;;;;;;;;;;;;;;5.49;37.54;100544.44;4374015;32;19995;-71
2022/01/21 09:36:38;;;;;;;;;;;;;;;5.29;39.52;100551.16;4371936;32;19990;-71
2022/01/21 09:39:05;;;;;;;;;;;;;;;5.08;39.52;100545.87;4377080;32;19997;-73
2022/01/21 09:41:32;;;;;;;;;;;;;;;5.60;37.88;100544.12;4370559;32;19987;-71
2022/01/21 09:44:01;;;;;;;;;;;;;;;5.19;39.51;100543.84;4370851;32;19997;-71
2022/01/21 09:46:34;;;;;;;;;;;;;;;5.52;38.61;100550.59;4359981;32;19979;-71
2022/01/21 09:49:07;;;;;;;;;;;;;;;5.63;38.56;100547.66;4369371;32;20009;-71
2022/01/21 09:51:35;;;;;;;;;;;;;;;5.35;39.50;100556.59;4357493;32;20042;-72
2022/01/21 09:54:05;;;;;;;;;;;;;;;5.70;37.54;100549.69;4371055;32;19987;-71
2022/01/21 09:56:34;;;;;;;;;;;;;;;5.58;38.30;100550.00;4378582;32;19995;-72
2022/01/21 09:59:01;;;;;;;;;;;;;;;5.44;38.79;100551.91;4375262;32;19994;-72
2022/01/21 10:01:28;;;;;;;;;;;;;;;5.44;38.67;100546.78;4372203;32;20374;-71
2022/01/21 10:03:56;;;;;;;;;;;;;;;5.46;39.07;100563.16;4357001;32;19991;-72
2022/01/21 10:06:25;;;;;;;;;;;;;;;5.58;38.34;100539.72;4359469;32;20364;-72
2022/01/21 10:08:55;;;;;;;;;;;;;;;5.66;38.29;100545.25;4370306;32;20024;-72
2022/01/21 10:11:23;;;;;;;;;;;;;;;5.65;39.47;100540.88;4358187;32;20086;-72
2022/01/21 10:13:51;;;;;;;;;;;;;;;5.90;37.87;100536.09;4379221;32;19994;-73
2022/01/21 10:16:18;;;;;;;;;;;;;;;5.75;38.78;100532.84;4374307;32;19975;-72
2022/01/21 10:19:00;;;;;;;;;;;;;;;5.91;38.48;100534.41;4370492;32;20004;-72
2022/01/21 10:21:34;;;;;;;;;;;;;;;5.59;39.05;100544.06;4378437;32;20084;-72
2022/01/21 10:24:27;;;;;;;;;;;;;;;5.54;38.56;100543.84;4356386;32;19975;-71
2022/01/21 10:26:55;;;;;;;;;;;;;;;5.55;38.90;100535.34;4366609;32;20383;-71
2022/01/21 10:29:22;;;;;;;;;;;;;;;5.60;39.83;100544.12;4384511;32;20385;-72
2022/01/21 10:31:56;;;;;;;;;;;;;;;5.22;40.52;100538.84;4374274;32;20030;-71
2022/01/21 10:34:25;;;;;;;;;;;;;;;5.66;39.18;100533.28;4390469;32;19978;-71
2022/01/21 10:36:57;;;;;;;;;;;;;;;5.18;40.05;100536.94;4387445;32;20070;-71
2022/01/21 10:39:32;;;;;;;;;;;;;;;5.46;39.63;100532.34;4371700;32;20043;-71
2022/01/21 10:41:59;;;;;;;;;;;;;;;5.58;38.77;100530.34;4371394;32;19979;-70
2022/01/21 10:44:28;;;;;;;;;;;;;;;4.70;42.05;100537.16;4385493;32;20008;-71
2022/01/21 10:47:01;;;;;;;;;;;;;;;5.10;40.88;100540.00;4385405;32;20050;-71
2022/01/21 10:49:28;;;;;;;;;;;;;;;5.27;40.92;100537.41;4386883;32;19990;-71
2022/01/21 10:51:58;;;;;;;;;;;;;;;5.22;40.69;100542.28;4393656;32;19979;-71
2022/01/21 10:54:26;;;;;;;;;;;;;;;4.74;41.43;100548.44;4385251;32;19986;-71
2022/01/21 10:57:12;;;;;;;;;;;;;;;4.57;42.27;100550.16;4372800;32;20700;-70
2022/01/21 10:59:47;;;;;;;;;;;;;;;5.05;41.69;100556.00;4393030;32;19990;-72
2022/01/21 11:02:15;;;;;;;;;;;;;;;5.10;40.81;100542.56;4375351;32;20606;-71
2022/01/21 11:04:42;;;;;;;;;;;;;;;5.13;41.21;100549.53;4378162;32;20046;-71
2022/01/21 11:07:13;;;;;;;;;;;;;;;5.38;40.55;100541.34;4376367;32;20002;-72
2022/01/21 11:09:40;;;;;;;;;;;;;;;5.37;40.80;100537.03;4381031;32;20043;-72
2022/01/21 11:12:16;;;;;;;;;;;;;;;4.96;41.89;100546.16;4370468;32;20042;-71
2022/01/21 11:15:03;;;;;;;;;;;;;;;4.68;42.59;100537.88;4369452;32;20321;-73
2022/01/21 11:17:32;;;;;;;;;;;;;;;5.07;41.33;100534.75;4368443;32;19986;-71
2022/01/21 11:20:03;;;;;;;;;;;;;;;5.21;41.88;100542.22;4374772;32;19978;-71
2022/01/21 11:22:30;;;;;;;;;;;;;;;5.46;40.78;100522.06;4380826;32;20451;-71
2022/01/21 11:24:59;;;;;;;;;;;;;;;5.48;40.49;100520.44;4369970;32;19991;-75
2022/01/21 11:27:26;;;;;;;;;;;;;;;5.31;40.97;100504.25;4368936;32;20491;-71
2022/01/21 11:29:54;;;;;;;;;;;;;;;4.81;41.73;100507.78;4376481;32;19970;-70
2022/01/21 11:32:21;;;;;;;;;;;;;;;4.41;42.49;100507.47;4379594;32;20024;-71
2022/01/21 11:34:49;;;;;;;;;;;;;;;5.05;40.91;100505.56;4370706;32;20429;-72
2022/01/21 11:37:16;;;;;;;;;;;;;;;4.82;41.10;100485.59;4376750;32;20373;-72
2022/01/21 11:39:43;;;;;;;;;;;;;;;4.73;41.26;100492.84;4370606;32;20025;-71
2022/01/21 11:42:10;;;;;;;;;;;;;;;4.60;41.79;100469.12;4373264;32;19989;-71
2022/01/21 11:44:39;;;;;;;;;;;;;;;4.51;42.01;100478.94;4376495;32;20009;-72
2022/01/21 11:47:15;;;;;;;;;;;;;;;3.94;43.30;100457.19;4375105;32;20048;-75
2022/01/21 11:49:43;;;;;;;;;;;;;;;4.78;40.96;100451.19;4376462;32;19975;-71
2022/01/21 11:52:20;;;;;;;;;;;;;;;3.85;43.16;100438.78;4375098;32;19995;-71
2022/01/21 11:54:48;;;;;;;;;;;;;;;4.60;41.39;100433.25;4380700;32;19986;-70
2022/01/21 11:57:15;;;;;;;;;;;;;;;5.05;40.41;100417.44;4380024;32;20021;-70
2022/01/21 12:00:01;;;;;;;;;;;;;;;4.36;41.33;100438.03;4375439;32;19990;-71
2022/01/21 12:02:31;;;;;;;;;;;;;;;4.22;42.06;100418.53;4373129;32;19991;-71
2022/01/21 12:05:02;;;;;;;;;;;;;;;4.32;41.87;100414.75;4369503;32;20484;-71
2022/01/21 12:07:57;;;;;;;;;;;;;;;4.91;40.53;100416.78;4368997;32;20054;-70
2022/01/21 12:10:21;;;;;;;;;;;;;;;5.27;39.22;100399.69;4369230;32;20085;-72
2022/01/21 12:12:57;;;;;;;;;;;;;;;5.08;40.44;100400.50;4369288;32;19999;-75
2022/01/21 12:15:33;;;;;;;;;;;;;;;4.79;40.62;100416.19;4228967;32;5001761;-71
2022/01/21 12:18:09;;;;;;;;;;;;;;;4.78;40.71;100399.91;4369404;32;20001;-71
2022/01/21 12:20:37;;;;;;;;;;;;;;;4.85;41.16;100396.84;4372144;32;19979;-71
2022/01/21 12:23:12;;;;;;;;;;;;;;;5.09;40.12;100407.38;4371112;32;19990;-71
2022/01/21 12:25:58;;;;;;;;;;;;;;;5.31;39.37;100400.69;4372059;32;19979;-72
2022/01/21 12:28:25;;;;;;;;;;;;;;;5.22;39.06;100400.25;4369241;32;20001;-70
2022/01/21 12:30:53;;;;;;;;;;;;;;;4.93;39.24;100394.66;4372997;32;20347;-70
2022/01/21 12:33:23;;;;;;;;;;;;;;;5.17;39.21;100396.59;4376182;32;20339;-73
2022/01/21 12:35:56;;;;;;;;;;;;;;;4.96;39.82;100394.78;4381453;32;20665;-79
2022/01/21 12:41:04;;;;;;;;;;;;;;;4.83;40.16;100392.44;4382532;32;19971;-74
2022/01/21 12:43:36;;;;;;;;;;;;;;;5.08;40.94;100403.06;4382109;32;20359;-79
2022/01/21 12:46:05;;;;;;;;;;;;;;;4.93;40.75;100404.91;4378401;32;20268;-69
2022/01/21 12:48:34;;;;;;;;;;;;;;;4.84;40.03;100407.03;4376344;32;20130;-70
2022/01/21 12:51:14;;;;;;;;;;;;;;;5.06;40.02;100394.41;4382301;32;20001;-70
2022/01/21 12:56:57;;;;;;;;;;;;;;;5.58;39.41;100417.38;4350924;32;19995;-69
2022/01/21 12:59:25;;;;;;;;;;;;;;;4.99;40.72;100412.91;4378310;32;20261;-70
2022/01/21 13:01:53;;;;;;;;;;;;;;;5.28;39.32;100421.09;4377231;32;20137;-69
2022/01/21 13:04:26;;;;;;;;;;;;;;;5.21;39.03;100434.44;4379242;32;20794;-69
2022/01/21 13:06:57;;;;;;;;;;;;;;;5.11;39.97;100428.88;4379199;32;20046;-71
2022/01/21 13:09:43;;;;;;;;;;;;;;;5.48;38.58;100435.69;4376919;32;20037;-72
2022/01/21 13:12:13;;;;;;;;;;;;;;;5.33;39.50;100435.91;4381777;32;20013;-70
2022/01/21 13:14:45;;;;;;;;;;;;;;;5.56;37.78;100438.66;4377175;32;20041;-70
2022/01/21 13:17:14;;;;;;;;;;;;;;;5.23;39.19;100435.38;4380449;32;20008;-70
2022/01/21 13:19:43;;;;;;;;;;;;;;;5.25;39.23;100446.59;4381571;32;19998;-76
2022/01/21 13:22:18;;;;;;;;;;;;;;;5.34;38.87;100426.50;4381904;32;19982;-71
2022/01/21 13:27:50;;;;;;;;;;;;;;;5.44;37.15;100433.81;4374229;32;20295;-76
2022/01/21 13:30:19;;;;;;;;;;;;;;;5.54;36.23;100437.69;4376009;32;19987;-71
2022/01/21 13:32:46;;;;;;;;;;;;;;;5.56;36.80;100434.38;4381323;32;19987;-71
2022/01/21 13:35:15;;;;;;;;;;;;;;;5.22;37.70;100446.47;4392529;32;19998;-70
2022/01/21 13:37:59;;;;;;;;;;;;;;;5.24;37.39;100444.84;4379157;32;20016;-70
2022/01/21 13:40:28;;;;;;;;;;;;;;;5.39;37.32;100427.56;4382059;32;20000;-75
2022/01/21 13:43:14;;;;;;;;;;;;;;;5.76;37.18;100421.56;4368516;32;19979;-71
2022/01/21 13:45:42;;;;;;;;;;;;;;;5.91;36.15;100411.97;4394774;32;20012;-79
2022/01/21 13:48:10;;;;;;;;;;;;;;;5.37;36.67;100412.12;4381969;32;20013;-70
2022/01/21 13:50:43;;;;;;;;;;;;;;;5.18;37.60;100408.62;4381896;32;20006;-71
2022/01/21 13:53:10;;;;;;;;;;;;;;;5.37;37.32;100406.13;4396999;32;20036;-69
2022/01/21 13:55:42;;;;;;;;;;;;;;;4.81;38.14;100399.19;4379751;32;19991;-69